createdAt,value
2018-06-09T00:00:02.695Z,17.9
2018-06-09T00:15:03.012Z,17.6
2018-06-09T00:30:02.502Z,17.9
2018-06-09T00:45:02.913Z,17.7
2018-06-09T01:00:03.252Z,17.4
2018-06-09T01:15:02.584Z,17.4
2018-06-09T01:30:02.979Z,17.1
2018-06-09T01:45:02.298Z,16.9
2018-06-09T02:00:02.685Z,16.8
2018-06-09T02:15:03.159Z,16.5
2018-06-09T02:30:02.642Z,16.4
2018-06-09T02:45:03.064Z,16.8
2018-06-09T03:00:02.474Z,16.6
2018-06-09T03:15:02.874Z,16.6
2018-06-09T03:30:02.332Z,16.8
2018-06-09T03:45:02.832Z,16.8
2018-06-09T04:00:03.255Z,16.9
2018-06-09T04:15:02.566Z,17.1
2018-06-09T04:30:02.973Z,17.2
2018-06-09T04:45:02.322Z,17.2
2018-06-09T05:00:02.653Z,17.5
2018-06-09T05:15:02.971Z,17.5
2018-06-09T05:30:02.435Z,17.8
2018-06-09T05:45:02.830Z,18.1
2018-06-09T06:00:03.457Z,18.6
2018-06-09T06:15:02.789Z,18.5
2018-06-09T06:30:02.335Z,18.6
2018-06-09T06:45:02.872Z,19
2018-06-09T07:00:03.381Z,19.2
2018-06-09T07:15:02.770Z,19.5
2018-06-09T07:30:03.172Z,19.5
2018-06-09T07:45:02.599Z,19.9
2018-06-09T08:00:02.970Z,21.1
2018-06-09T08:15:02.388Z,21.6
2018-06-09T08:30:02.821Z,21.6
2018-06-09T08:45:03.195Z,22.1
2018-06-09T09:00:02.540Z,21.6
2018-06-09T09:15:02.954Z,21.6
2018-06-09T09:30:02.429Z,21.5
2018-06-09T09:45:02.808Z,21.6
2018-06-09T10:00:03.157Z,23.9
2018-06-09T10:15:02.918Z,24.8
2018-06-09T10:30:02.342Z,24.2
2018-06-09T10:45:02.799Z,24.9
2018-06-09T11:00:03.289Z,26.4
2018-06-09T11:15:02.650Z,27.1
2018-06-09T11:30:03.067Z,28.4
2018-06-09T11:45:02.434Z,28
2018-06-09T12:00:02.761Z,28.2
2018-06-09T12:15:03.072Z,27.4
2018-06-09T12:30:02.444Z,29.2
2018-06-09T12:45:02.798Z,28.9
2018-06-09T13:00:03.089Z,29.5
2018-06-09T13:15:02.458Z,29.3
2018-06-09T13:30:02.893Z,28.8
2018-06-09T13:45:03.283Z,29.6
2018-06-09T14:00:02.673Z,28.4
2018-06-09T14:15:03.204Z,29.9
2018-06-09T14:30:02.656Z,28.8
2018-06-09T14:45:02.970Z,29.4
2018-06-09T15:00:02.280Z,28.4
2018-06-09T15:15:02.691Z,25.1
2018-06-09T15:30:03.184Z,24.5
2018-06-09T15:45:02.560Z,24.2
2018-06-09T16:00:02.891Z,24.1
2018-06-09T16:15:03.204Z,23.6
2018-06-09T16:30:02.701Z,23.3
2018-06-09T16:45:03.089Z,23.6
2018-06-09T17:00:02.433Z,23.4
2018-06-09T17:15:02.833Z,23.4
2018-06-09T17:30:03.302Z,23.2
2018-06-09T17:45:02.673Z,22.9
2018-06-09T18:00:03.002Z,22.6
2018-06-09T18:15:02.503Z,22.6
2018-06-09T18:30:02.978Z,22.6
2018-06-09T18:45:02.361Z,22.4
2018-06-09T19:00:02.736Z,21.9
2018-06-09T19:15:03.222Z,21.6
2018-06-09T19:30:02.665Z,20.9
2018-06-09T19:45:02.966Z,20.4
2018-06-09T20:00:02.277Z,20.2
2018-06-09T20:15:02.742Z,20.1
2018-06-09T20:30:03.157Z,19.8
2018-06-09T20:45:02.533Z,19.6
2018-06-09T21:00:02.868Z,19.4
2018-06-09T21:15:03.289Z,19.1
2018-06-09T21:30:02.747Z,18.8
2018-06-09T21:45:03.182Z,18.6
2018-06-09T22:00:02.603Z,18.7
2018-06-09T22:15:03.043Z,18.6
2018-06-09T22:30:02.557Z,18.3
2018-06-09T22:45:02.990Z,18.2
2018-06-09T23:00:02.429Z,18.6
2018-06-09T23:15:02.755Z,18.2
2018-06-09T23:30:03.262Z,18.4
2018-06-09T23:45:02.658Z,18.1
